Terminal Aerodrome Forecast
Issued by NWS

Home | Current Version | Previous Version | Text Only | Print | Product List | Glossary On
Versions: 1 2 3 4 5 6 7 8 9 10 11 12 13 14
000
FTUS41 KPBZ 031736
TAFZZV
TAF
KZZV 031736Z 0318/0418 25008KT P6SM BKN040 BKN050 BKN080
     FM032100 25005KT P6SM OVC250
      TEMPO 0321/0322 P6SM TS BKN050CB
     FM040600 27003KT P6SM BKN100
     FM041100 29005KT P6SM SCT250
     FM041700 25009G15KT P6SM SKC=

USA.gov is the U.S. government's official web portal to all federal, state and local government web resources and services.